createdAt,value
2022-12-31T00:00:17.801Z,8.216996
2022-12-31T00:05:17.918Z,1.751209
2022-12-31T00:10:16.346Z,0.929103
2022-12-31T00:15:15.817Z,1.531018
2022-12-31T00:20:16.721Z,0.068591
2022-12-31T00:25:16.066Z,0.035985
2022-12-31T00:30:18.115Z,0.000000
2022-12-31T00:35:18.116Z,0.000000
2022-12-31T00:40:15.823Z,0.004562
2022-12-31T00:45:16.427Z,0.000000
2022-12-31T00:50:16.177Z,0.000000
2022-12-31T00:55:16.218Z,0.000000
2022-12-31T01:00:16.477Z,0.000000
2022-12-31T01:05:16.356Z,0.000000
2022-12-31T01:10:15.947Z,0.000000
2022-12-31T01:15:15.697Z,0.000000
2022-12-31T01:20:16.833Z,0.000000
2022-12-31T01:25:16.953Z,0.000000
2022-12-31T01:30:16.974Z,0.000000
2022-12-31T01:35:16.031Z,0.000000
2022-12-31T01:40:16.040Z,0.000000
2022-12-31T01:45:16.319Z,0.000000
2022-12-31T01:50:15.643Z,0.000000
2022-12-31T01:55:15.985Z,0.000000
2022-12-31T02:00:15.804Z,0.000000
2022-12-31T02:05:16.977Z,0.000000
2022-12-31T02:10:15.899Z,0.000000
2022-12-31T02:15:15.624Z,0.000000
2022-12-31T02:20:17.475Z,0.000000
2022-12-31T02:25:17.481Z,0.000000
2022-12-31T02:30:16.373Z,0.000000
2022-12-31T02:35:16.195Z,0.000000
2022-12-31T02:40:15.830Z,0.000000
2022-12-31T02:45:16.325Z,0.000000
2022-12-31T02:50:15.953Z,0.000000
2022-12-31T02:55:15.582Z,0.000000
2022-12-31T03:00:16.450Z,0.000000
2022-12-31T03:05:17.775Z,0.000000
2022-12-31T03:10:16.456Z,0.000000
2022-12-31T03:15:18.816Z,0.000000
2022-12-31T03:20:17.700Z,0.000000
2022-12-31T03:25:16.162Z,0.000000
2022-12-31T03:30:16.962Z,0.000000
2022-12-31T03:35:16.911Z,0.000000
2022-12-31T03:40:16.302Z,0.000000
2022-12-31T03:45:15.889Z,0.000000
2022-12-31T03:50:15.842Z,0.000000
2022-12-31T03:55:16.833Z,0.000000
2022-12-31T04:00:17.278Z,0.000000
2022-12-31T04:05:15.903Z,0.000000
2022-12-31T04:10:16.106Z,0.000000
2022-12-31T04:15:16.667Z,0.000000
2022-12-31T04:20:17.001Z,0.000000
2022-12-31T04:25:16.144Z,0.000000
2022-12-31T04:30:16.252Z,0.000000
2022-12-31T04:35:16.490Z,0.000000
2022-12-31T04:40:16.166Z,0.000000
2022-12-31T04:45:15.921Z,0.000000
2022-12-31T04:50:16.978Z,0.000000
2022-12-31T04:55:16.481Z,0.000000
2022-12-31T05:00:16.072Z,0.000000
2022-12-31T05:05:16.544Z,0.000000
2022-12-31T05:10:16.548Z,0.000000
2022-12-31T05:15:17.319Z,0.000000
2022-12-31T05:20:15.999Z,0.002303
2022-12-31T05:25:16.498Z,0.000000
2022-12-31T05:30:16.405Z,0.000000
2022-12-31T05:35:17.266Z,0.000000
2022-12-31T05:40:16.102Z,0.000000
2022-12-31T05:45:16.061Z,0.000000
2022-12-31T05:50:16.592Z,0.000000
2022-12-31T05:55:16.019Z,0.000000
2022-12-31T06:00:16.139Z,0.000000
2022-12-31T06:05:19.722Z,0.000000
2022-12-31T06:10:16.179Z,0.000000
2022-12-31T06:15:16.568Z,0.000000
2022-12-31T06:20:17.336Z,0.000000
2022-12-31T06:25:16.453Z,0.000000
2022-12-31T06:30:17.547Z,0.000000
2022-12-31T06:35:17.068Z,0.000000
2022-12-31T06:40:16.382Z,0.000000
2022-12-31T06:45:15.945Z,0.000000
2022-12-31T06:50:17.851Z,0.000000
2022-12-31T06:55:16.117Z,0.000000
2022-12-31T07:00:16.203Z,0.000000
2022-12-31T07:05:15.826Z,0.000000
2022-12-31T07:10:17.937Z,0.000000
2022-12-31T07:15:16.237Z,0.000000
2022-12-31T07:20:16.527Z,0.000000
2022-12-31T07:25:15.730Z,0.000000
2022-12-31T07:30:16.856Z,0.000000
2022-12-31T07:35:16.609Z,0.000000
2022-12-31T07:40:16.278Z,0.000000
2022-12-31T07:45:16.463Z,0.000000
2022-12-31T07:50:16.074Z,0.000000
2022-12-31T07:55:16.666Z,0.000000
2022-12-31T08:00:19.480Z,0.000000
2022-12-31T08:05:17.669Z,0.000000
2022-12-31T08:10:18.240Z,0.000000
2022-12-31T08:15:17.869Z,0.000000
2022-12-31T08:20:15.917Z,0.000000
2022-12-31T08:25:15.818Z,0.000000
2022-12-31T08:30:15.729Z,0.000000
2022-12-31T08:35:16.782Z,0.000000
2022-12-31T08:40:15.658Z,0.000000
2022-12-31T08:45:16.521Z,0.000000
2022-12-31T08:50:16.582Z,0.000000
2022-12-31T08:55:16.404Z,0.000000
2022-12-31T09:00:17.506Z,0.000000
2022-12-31T09:05:15.659Z,0.000000
2022-12-31T09:10:16.384Z,0.000000
2022-12-31T09:15:15.903Z,0.000000
2022-12-31T09:20:16.613Z,0.000000
2022-12-31T09:25:15.793Z,0.000000
2022-12-31T09:30:17.185Z,0.000000
2022-12-31T09:35:22.286Z,0.000000
2022-12-31T09:40:16.164Z,0.000000
2022-12-31T09:45:17.745Z,0.000000
2022-12-31T09:50:16.288Z,0.000000
2022-12-31T09:55:16.408Z,0.000000
2022-12-31T10:00:17.785Z,0.000000
2022-12-31T10:05:17.215Z,0.000000
2022-12-31T10:10:17.016Z,0.000000
2022-12-31T10:15:23.461Z,0.000000
2022-12-31T10:20:15.761Z,0.000000
2022-12-31T10:25:17.193Z,0.000000
2022-12-31T10:30:22.237Z,0.000000
2022-12-31T10:35:17.846Z,0.000000
2022-12-31T10:40:16.374Z,0.000000
2022-12-31T10:45:16.795Z,0.000000
2022-12-31T10:50:17.263Z,0.000000
2022-12-31T10:55:16.992Z,0.000000
2022-12-31T11:00:17.643Z,0.000000
2022-12-31T11:05:16.848Z,0.000000
2022-12-31T11:10:18.544Z,0.000000
2022-12-31T11:15:16.066Z,0.000000
2022-12-31T11:20:17.579Z,0.000000
2022-12-31T11:25:26.462Z,0.000000
2022-12-31T11:30:18.401Z,0.000000
2022-12-31T11:35:16.419Z,0.000000
2022-12-31T11:40:16.589Z,0.000000
2022-12-31T11:45:15.756Z,0.000000
2022-12-31T11:50:16.209Z,0.000000
2022-12-31T11:55:17.213Z,0.000000
2022-12-31T12:00:16.670Z,0.000000
2022-12-31T12:05:17.352Z,0.000000
2022-12-31T12:10:21.716Z,0.002292
2022-12-31T12:15:17.959Z,0.000000
2022-12-31T12:20:17.082Z,0.000000
2022-12-31T12:25:17.229Z,0.000000
2022-12-31T12:30:17.098Z,0.000000
2022-12-31T12:35:15.478Z,0.000000
2022-12-31T12:40:16.793Z,0.000000
2022-12-31T12:45:16.825Z,0.000000
2022-12-31T12:50:17.083Z,0.000000
2022-12-31T12:55:16.118Z,0.000000
2022-12-31T13:00:18.383Z,0.000000
2022-12-31T13:05:16.391Z,0.000000
2022-12-31T13:10:17.044Z,0.000000
2022-12-31T13:15:19.395Z,0.000000
2022-12-31T13:20:17.210Z,0.000000
2022-12-31T13:25:18.375Z,0.000000
2022-12-31T13:30:16.198Z,0.000000
2022-12-31T13:35:17.319Z,0.000000
2022-12-31T13:40:17.273Z,0.002265
2022-12-31T13:45:16.285Z,0.000000
2022-12-31T13:50:17.278Z,0.000000
2022-12-31T13:55:15.985Z,0.000000
2022-12-31T14:00:17.369Z,0.000000
2022-12-31T14:05:16.577Z,0.000000
2022-12-31T14:10:16.722Z,0.000000
2022-12-31T14:15:19.427Z,0.000000
2022-12-31T14:20:17.904Z,0.000000
2022-12-31T14:25:16.651Z,0.000000
2022-12-31T14:30:16.270Z,0.000000
2022-12-31T14:35:17.193Z,0.000000
2022-12-31T14:40:16.437Z,0.000000
2022-12-31T14:45:17.031Z,0.000000
2022-12-31T14:50:16.907Z,0.000000
2022-12-31T14:55:16.971Z,0.000000
2022-12-31T15:00:16.280Z,0.000000
2022-12-31T15:05:18.364Z,0.000000
2022-12-31T15:10:16.282Z,0.000000
2022-12-31T15:15:16.547Z,0.000000
2022-12-31T15:20:18.160Z,0.000000
2022-12-31T15:25:17.394Z,0.000000
2022-12-31T15:30:17.422Z,0.000000
2022-12-31T15:35:16.739Z,0.000000
2022-12-31T15:40:16.076Z,0.000000
2022-12-31T15:45:16.824Z,0.000000
2022-12-31T15:50:16.929Z,0.000000
2022-12-31T15:55:18.314Z,0.006990
2022-12-31T16:00:17.322Z,0.036072
2022-12-31T16:05:17.168Z,0.340095
2022-12-31T16:10:15.700Z,1.353885
2022-12-31T16:15:18.010Z,2.641922
2022-12-31T16:20:21.646Z,4.149383
2022-12-31T16:25:32.867Z,6.496563
2022-12-31T16:30:17.407Z,9.328606
2022-12-31T16:35:23.016Z,11.608126
2022-12-31T16:40:15.986Z,17.084887
2022-12-31T16:45:16.636Z,20.959563
2022-12-31T16:50:16.067Z,20.128542
2022-12-31T16:55:16.700Z,19.816442
2022-12-31T17:00:16.190Z,20.979072
2022-12-31T17:05:18.225Z,25.413031
2022-12-31T17:10:18.938Z,20.528496
2022-12-31T17:15:18.362Z,20.797373
2022-12-31T17:20:16.391Z,32.925585
2022-12-31T17:25:16.684Z,41.450610
2022-12-31T17:30:16.318Z,51.495998
2022-12-31T17:35:16.484Z,53.665618
2022-12-31T17:40:49.808Z,57.025336
2022-12-31T17:45:16.171Z,56.098525
2022-12-31T17:50:17.545Z,53.479014
2022-12-31T17:55:17.162Z,43.688365
2022-12-31T18:00:16.765Z,28.176765
2022-12-31T18:05:17.167Z,30.307419
2022-12-31T18:10:16.168Z,33.316544
2022-12-31T18:15:21.174Z,34.248410
2022-12-31T18:20:15.856Z,24.078613
2022-12-31T18:25:16.304Z,29.876944
2022-12-31T18:30:16.558Z,44.082034
2022-12-31T18:35:33.318Z,37.472403
2022-12-31T18:40:16.663Z,29.434002
2022-12-31T18:45:17.143Z,29.181497
2022-12-31T18:50:17.378Z,27.372825
2022-12-31T18:55:16.390Z,32.352432
2022-12-31T19:00:16.818Z,30.836701
2022-12-31T19:05:18.803Z,29.108528
2022-12-31T19:10:17.292Z,35.018885
2022-12-31T19:15:16.661Z,32.147735
2022-12-31T19:20:17.855Z,27.340853
2022-12-31T19:25:15.827Z,30.454810
2022-12-31T19:30:16.243Z,34.589959
2022-12-31T19:35:16.716Z,46.469184
2022-12-31T19:40:16.497Z,51.315340
2022-12-31T19:45:16.151Z,69.568200
2022-12-31T19:50:16.504Z,62.705239
2022-12-31T19:55:17.636Z,73.566375
2022-12-31T20:00:16.504Z,80.884737
2022-12-31T20:05:18.354Z,73.493811
2022-12-31T20:10:18.944Z,66.377115
2022-12-31T20:15:16.467Z,58.055792
2022-12-31T20:20:17.137Z,56.401248
2022-12-31T20:25:16.173Z,64.084700
2022-12-31T20:30:16.107Z,87.107950
2022-12-31T20:35:16.557Z,92.311006
2022-12-31T20:40:22.191Z,91.496155
2022-12-31T20:45:16.424Z,82.357197
2022-12-31T20:50:17.711Z,91.303117
2022-12-31T20:55:15.730Z,95.330630
2022-12-31T21:00:15.765Z,77.099887
2022-12-31T21:05:16.177Z,62.665459
2022-12-31T21:10:16.711Z,61.639021
2022-12-31T21:15:17.572Z,71.821087
2022-12-31T21:20:16.837Z,78.184273
2022-12-31T21:25:15.641Z,92.305095
2022-12-31T21:30:19.385Z,109.190887
2022-12-31T21:36:04.237Z,119.085850
2022-12-31T21:40:18.217Z,109.912056
2022-12-31T21:45:17.111Z,104.395638
2022-12-31T21:50:15.598Z,93.932315
2022-12-31T21:55:16.177Z,82.118290
2022-12-31T22:00:41.144Z,93.635590
2022-12-31T22:05:21.601Z,96.924840
2022-12-31T22:10:16.153Z,92.927897
2022-12-31T22:15:18.329Z,82.266033
2022-12-31T22:20:27.213Z,77.270415
2022-12-31T22:25:16.543Z,56.112796
2022-12-31T22:30:17.220Z,41.707151
2022-12-31T22:35:16.416Z,35.641505
2022-12-31T22:40:17.160Z,36.728399
2022-12-31T22:45:15.591Z,44.261065
2022-12-31T22:50:22.281Z,55.462686
2022-12-31T22:55:18.853Z,55.278706
2022-12-31T23:00:16.892Z,53.923290
2022-12-31T23:05:17.433Z,47.320468
2022-12-31T23:10:16.952Z,55.456108
2022-12-31T23:15:17.578Z,48.375756
2022-12-31T23:20:17.292Z,45.507619
2022-12-31T23:25:16.481Z,46.256638
2022-12-31T23:30:16.568Z,36.033574
2022-12-31T23:35:17.686Z,29.744767
2022-12-31T23:40:21.222Z,24.395206
2022-12-31T23:45:16.619Z,22.821162
2022-12-31T23:50:17.231Z,20.869332
2022-12-31T23:55:16.241Z,15.529253
